sensor_id;sensor_type;location;lat;lon;timestamp;P1;durP1;ratioP1;P2;durP2;ratioP2
11943;SDS011;6031;50.220;10.122;2022-08-19T00:00:15;15.83;;;13.47;;
11943;SDS011;6031;50.220;10.122;2022-08-19T00:02:41;13.50;;;11.80;;
11943;SDS011;6031;50.220;10.122;2022-08-19T00:05:08;14.43;;;12.03;;
11943;SDS011;6031;50.220;10.122;2022-08-19T00:07:34;12.90;;;10.80;;
11943;SDS011;6031;50.220;10.122;2022-08-19T00:10:00;12.53;;;11.23;;
11943;SDS011;6031;50.220;10.122;2022-08-19T00:12:26;14.03;;;12.27;;
11943;SDS011;6031;50.220;10.122;2022-08-19T00:14:52;15.27;;;11.77;;
11943;SDS011;6031;50.220;10.122;2022-08-19T00:17:19;12.97;;;11.23;;
11943;SDS011;6031;50.220;10.122;2022-08-19T00:19:44;12.70;;;11.50;;
11943;SDS011;6031;50.220;10.122;2022-08-19T00:22:10;13.93;;;12.27;;
11943;SDS011;6031;50.220;10.122;2022-08-19T00:24:35;12.87;;;11.30;;
11943;SDS011;6031;50.220;10.122;2022-08-19T00:27:03;12.90;;;11.60;;
11943;SDS011;6031;50.220;10.122;2022-08-19T00:29:29;12.93;;;11.60;;
11943;SDS011;6031;50.220;10.122;2022-08-19T00:31:56;14.90;;;12.27;;
11943;SDS011;6031;50.220;10.122;2022-08-19T00:34:23;12.57;;;11.30;;
11943;SDS011;6031;50.220;10.122;2022-08-19T00:36:52;15.47;;;12.20;;
11943;SDS011;6031;50.220;10.122;2022-08-19T00:39:18;14.77;;;11.63;;
11943;SDS011;6031;50.220;10.122;2022-08-19T00:41:44;13.63;;;11.50;;
11943;SDS011;6031;50.220;10.122;2022-08-19T00:44:16;12.37;;;11.07;;
11943;SDS011;6031;50.220;10.122;2022-08-19T00:46:45;14.73;;;12.13;;
11943;SDS011;6031;50.220;10.122;2022-08-19T00:51:45;18.00;;;12.87;;
11943;SDS011;6031;50.220;10.122;2022-08-19T00:54:13;13.60;;;12.20;;
11943;SDS011;6031;50.220;10.122;2022-08-19T00:56:39;13.80;;;11.60;;
11943;SDS011;6031;50.220;10.122;2022-08-19T00:59:05;13.67;;;12.23;;
11943;SDS011;6031;50.220;10.122;2022-08-19T01:01:35;12.50;;;11.20;;
11943;SDS011;6031;50.220;10.122;2022-08-19T01:04:05;12.43;;;11.10;;
11943;SDS011;6031;50.220;10.122;2022-08-19T01:06:31;13.00;;;11.57;;
11943;SDS011;6031;50.220;10.122;2022-08-19T01:08:59;16.13;;;11.33;;
11943;SDS011;6031;50.220;10.122;2022-08-19T01:11:26;12.60;;;11.30;;
11943;SDS011;6031;50.220;10.122;2022-08-19T01:13:52;12.23;;;10.73;;
11943;SDS011;6031;50.220;10.122;2022-08-19T01:16:19;13.10;;;11.63;;
11943;SDS011;6031;50.220;10.122;2022-08-19T01:18:47;13.23;;;11.63;;
11943;SDS011;6031;50.220;10.122;2022-08-19T01:21:18;13.60;;;11.90;;
11943;SDS011;6031;50.220;10.122;2022-08-19T01:23:51;12.93;;;11.63;;
11943;SDS011;6031;50.220;10.122;2022-08-19T01:26:18;11.33;;;10.13;;
11943;SDS011;6031;50.220;10.122;2022-08-19T01:28:47;12.90;;;11.60;;
11943;SDS011;6031;50.220;10.122;2022-08-19T01:31:18;12.90;;;11.50;;
11943;SDS011;6031;50.220;10.122;2022-08-19T01:33:47;13.37;;;11.00;;
11943;SDS011;6031;50.220;10.122;2022-08-19T01:36:15;14.80;;;12.23;;
11943;SDS011;6031;50.220;10.122;2022-08-19T01:38:47;12.43;;;11.13;;
11943;SDS011;6031;50.220;10.122;2022-08-19T01:41:13;13.97;;;12.47;;
11943;SDS011;6031;50.220;10.122;2022-08-19T01:43:39;12.13;;;10.93;;
11943;SDS011;6031;50.220;10.122;2022-08-19T01:46:05;12.70;;;11.43;;
11943;SDS011;6031;50.220;10.122;2022-08-19T01:48:38;13.43;;;11.50;;
11943;SDS011;6031;50.220;10.122;2022-08-19T01:51:06;13.33;;;11.93;;
11943;SDS011;6031;50.220;10.122;2022-08-19T01:53:34;11.37;;;10.23;;
11943;SDS011;6031;50.220;10.122;2022-08-19T01:56:00;13.23;;;11.87;;
11943;SDS011;6031;50.220;10.122;2022-08-19T01:58:29;13.27;;;11.57;;
11943;SDS011;6031;50.220;10.122;2022-08-19T02:01:05;11.03;;;9.90;;
11943;SDS011;6031;50.220;10.122;2022-08-19T02:03:32;11.20;;;10.10;;
11943;SDS011;6031;50.220;10.122;2022-08-19T02:05:59;11.40;;;10.20;;
11943;SDS011;6031;50.220;10.122;2022-08-19T02:08:27;12.57;;;10.93;;
11943;SDS011;6031;50.220;10.122;2022-08-19T02:10:54;12.17;;;10.83;;
11943;SDS011;6031;50.220;10.122;2022-08-19T02:13:19;12.73;;;11.43;;
11943;SDS011;6031;50.220;10.122;2022-08-19T02:15:45;14.27;;;11.27;;
11943;SDS011;6031;50.220;10.122;2022-08-19T02:18:10;13.10;;;10.70;;
11943;SDS011;6031;50.220;10.122;2022-08-19T02:20:37;11.40;;;10.30;;
11943;SDS011;6031;50.220;10.122;2022-08-19T02:23:04;12.53;;;10.40;;
11943;SDS011;6031;50.220;10.122;2022-08-19T02:25:30;13.43;;;11.03;;
11943;SDS011;6031;50.220;10.122;2022-08-19T02:27:56;12.07;;;10.90;;
11943;SDS011;6031;50.220;10.122;2022-08-19T02:30:21;13.80;;;11.80;;
11943;SDS011;6031;50.220;10.122;2022-08-19T02:32:47;13.63;;;11.53;;
11943;SDS011;6031;50.220;10.122;2022-08-19T02:35:13;14.67;;;11.17;;
11943;SDS011;6031;50.220;10.122;2022-08-19T02:37:40;11.87;;;10.60;;
11943;SDS011;6031;50.220;10.122;2022-08-19T02:40:25;10.87;;;9.87;;
11943;SDS011;6031;50.220;10.122;2022-08-19T02:42:51;11.57;;;10.40;;
11943;SDS011;6031;50.220;10.122;2022-08-19T02:45:17;11.77;;;10.37;;
11943;SDS011;6031;50.220;10.122;2022-08-19T02:47:42;12.63;;;11.33;;
11943;SDS011;6031;50.220;10.122;2022-08-19T02:50:08;11.93;;;10.53;;
11943;SDS011;6031;50.220;10.122;2022-08-19T02:52:34;11.20;;;10.07;;
11943;SDS011;6031;50.220;10.122;2022-08-19T02:55:00;12.20;;;10.90;;
11943;SDS011;6031;50.220;10.122;2022-08-19T02:57:26;15.20;;;11.20;;
11943;SDS011;6031;50.220;10.122;2022-08-19T02:59:52;13.43;;;10.73;;
11943;SDS011;6031;50.220;10.122;2022-08-19T03:02:18;15.13;;;11.47;;
11943;SDS011;6031;50.220;10.122;2022-08-19T03:04:44;11.40;;;10.07;;
11943;SDS011;6031;50.220;10.122;2022-08-19T03:07:12;13.53;;;11.90;;
11943;SDS011;6031;50.220;10.122;2022-08-19T03:09:39;13.70;;;11.33;;
11943;SDS011;6031;50.220;10.122;2022-08-19T03:12:05;11.90;;;10.73;;
11943;SDS011;6031;50.220;10.122;2022-08-19T03:14:31;12.47;;;10.83;;
11943;SDS011;6031;50.220;10.122;2022-08-19T03:16:58;13.67;;;12.07;;
11943;SDS011;6031;50.220;10.122;2022-08-19T03:19:23;12.93;;;11.57;;
11943;SDS011;6031;50.220;10.122;2022-08-19T03:21:49;15.33;;;12.23;;
11943;SDS011;6031;50.220;10.122;2022-08-19T03:24:16;12.53;;;11.33;;
11943;SDS011;6031;50.220;10.122;2022-08-19T03:26:44;11.77;;;10.57;;
11943;SDS011;6031;50.220;10.122;2022-08-19T03:29:12;13.17;;;11.53;;
11943;SDS011;6031;50.220;10.122;2022-08-19T03:31:39;15.17;;;11.73;;
11943;SDS011;6031;50.220;10.122;2022-08-19T03:34:07;12.27;;;11.13;;
11943;SDS011;6031;50.220;10.122;2022-08-19T03:36:33;12.87;;;11.47;;
11943;SDS011;6031;50.220;10.122;2022-08-19T03:39:00;13.73;;;11.17;;
11943;SDS011;6031;50.220;10.122;2022-08-19T03:41:27;14.03;;;11.80;;
11943;SDS011;6031;50.220;10.122;2022-08-19T03:43:55;14.00;;;12.60;;
11943;SDS011;6031;50.220;10.122;2022-08-19T03:46:22;15.93;;;12.13;;
11943;SDS011;6031;50.220;10.122;2022-08-19T03:48:50;13.80;;;12.30;;
11943;SDS011;6031;50.220;10.122;2022-08-19T03:51:25;15.10;;;11.30;;
11943;SDS011;6031;50.220;10.122;2022-08-19T03:53:56;15.60;;;12.97;;
11943;SDS011;6031;50.220;10.122;2022-08-19T03:56:25;15.10;;;13.50;;
11943;SDS011;6031;50.220;10.122;2022-08-19T03:58:52;12.93;;;11.40;;
11943;SDS011;6031;50.220;10.122;2022-08-19T04:01:23;12.20;;;11.03;;
11943;SDS011;6031;50.220;10.122;2022-08-19T04:03:51;12.53;;;11.23;;
11943;SDS011;6031;50.220;10.122;2022-08-19T04:06:21;12.03;;;10.80;;
11943;SDS011;6031;50.220;10.122;2022-08-19T04:08:50;13.17;;;11.40;;
11943;SDS011;6031;50.220;10.122;2022-08-19T04:11:19;12.37;;;11.17;;
11943;SDS011;6031;50.220;10.122;2022-08-19T04:13:56;12.87;;;11.37;;
11943;SDS011;6031;50.220;10.122;2022-08-19T04:16:22;13.07;;;11.60;;
11943;SDS011;6031;50.220;10.122;2022-08-19T04:18:50;13.07;;;11.70;;
11943;SDS011;6031;50.220;10.122;2022-08-19T04:21:20;13.17;;;10.60;;
11943;SDS011;6031;50.220;10.122;2022-08-19T04:23:47;11.27;;;10.17;;
11943;SDS011;6031;50.220;10.122;2022-08-19T04:26:14;11.10;;;9.97;;
11943;SDS011;6031;50.220;10.122;2022-08-19T04:28:45;12.37;;;11.13;;
11943;SDS011;6031;50.220;10.122;2022-08-19T04:31:15;12.50;;;11.20;;
11943;SDS011;6031;50.220;10.122;2022-08-19T04:33:42;12.63;;;9.57;;
11943;SDS011;6031;50.220;10.122;2022-08-19T04:36:08;11.70;;;9.83;;
11943;SDS011;6031;50.220;10.122;2022-08-19T04:38:41;12.30;;;11.10;;
11943;SDS011;6031;50.220;10.122;2022-08-19T04:41:06;11.23;;;10.13;;
11943;SDS011;6031;50.220;10.122;2022-08-19T04:43:50;10.73;;;9.63;;
11943;SDS011;6031;50.220;10.122;2022-08-19T04:46:16;13.13;;;11.20;;
11943;SDS011;6031;50.220;10.122;2022-08-19T04:48:42;12.17;;;10.70;;
11943;SDS011;6031;50.220;10.122;2022-08-19T04:51:09;11.17;;;10.07;;
11943;SDS011;6031;50.220;10.122;2022-08-19T04:53:37;12.00;;;10.80;;
11943;SDS011;6031;50.220;10.122;2022-08-19T04:56:05;11.13;;;10.00;;
11943;SDS011;6031;50.220;10.122;2022-08-19T04:58:33;12.10;;;10.90;;
11943;SDS011;6031;50.220;10.122;2022-08-19T05:00:59;12.50;;;11.27;;
11943;SDS011;6031;50.220;10.122;2022-08-19T05:03:25;14.00;;;11.37;;
11943;SDS011;6031;50.220;10.122;2022-08-19T05:05:51;11.97;;;10.87;;
11943;SDS011;6031;50.220;10.122;2022-08-19T05:08:17;11.93;;;10.47;;
11943;SDS011;6031;50.220;10.122;2022-08-19T05:10:49;13.23;;;10.47;;
11943;SDS011;6031;50.220;10.122;2022-08-19T05:13:16;12.07;;;10.73;;
11943;SDS011;6031;50.220;10.122;2022-08-19T05:15:43;14.27;;;11.17;;
11943;SDS011;6031;50.220;10.122;2022-08-19T05:18:09;12.37;;;11.13;;
11943;SDS011;6031;50.220;10.122;2022-08-19T05:20:54;16.80;;;11.50;;
11943;SDS011;6031;50.220;10.122;2022-08-19T05:23:38;11.47;;;10.27;;
11943;SDS011;6031;50.220;10.122;2022-08-19T05:26:04;11.67;;;10.57;;
11943;SDS011;6031;50.220;10.122;2022-08-19T05:28:30;12.50;;;10.47;;
11943;SDS011;6031;50.220;10.122;2022-08-19T05:30:55;13.23;;;11.30;;
11943;SDS011;6031;50.220;10.122;2022-08-19T05:33:21;11.23;;;10.13;;
11943;SDS011;6031;50.220;10.122;2022-08-19T05:35:47;13.17;;;11.20;;
11943;SDS011;6031;50.220;10.122;2022-08-19T05:38:14;14.30;;;11.57;;
11943;SDS011;6031;50.220;10.122;2022-08-19T05:40:41;14.93;;;11.77;;
11943;SDS011;6031;50.220;10.122;2022-08-19T05:43:14;14.13;;;11.17;;
11943;SDS011;6031;50.220;10.122;2022-08-19T05:45:41;13.03;;;10.93;;
11943;SDS011;6031;50.220;10.122;2022-08-19T05:48:07;12.90;;;11.23;;
11943;SDS011;6031;50.220;10.122;2022-08-19T05:50:36;16.00;;;10.77;;
11943;SDS011;6031;50.220;10.122;2022-08-19T05:53:03;13.87;;;11.40;;
11943;SDS011;6031;50.220;10.122;2022-08-19T05:55:29;13.27;;;11.57;;
11943;SDS011;6031;50.220;10.122;2022-08-19T05:57:54;17.13;;;11.17;;
11943;SDS011;6031;50.220;10.122;2022-08-19T06:00:20;15.27;;;12.30;;
11943;SDS011;6031;50.220;10.122;2022-08-19T06:02:46;13.23;;;11.93;;
11943;SDS011;6031;50.220;10.122;2022-08-19T06:05:11;15.30;;;12.13;;
11943;SDS011;6031;50.220;10.122;2022-08-19T06:07:38;13.13;;;11.83;;
11943;SDS011;6031;50.220;10.122;2022-08-19T06:10:05;12.90;;;11.43;;
11943;SDS011;6031;50.220;10.122;2022-08-19T06:12:33;14.20;;;11.20;;
11943;SDS011;6031;50.220;10.122;2022-08-19T06:15:00;14.03;;;11.90;;
11943;SDS011;6031;50.220;10.122;2022-08-19T06:17:29;13.13;;;11.03;;
11943;SDS011;6031;50.220;10.122;2022-08-19T06:19:55;13.27;;;11.97;;
11943;SDS011;6031;50.220;10.122;2022-08-19T06:22:20;12.47;;;11.27;;
11943;SDS011;6031;50.220;10.122;2022-08-19T06:24:46;16.20;;;11.67;;
11943;SDS011;6031;50.220;10.122;2022-08-19T06:27:11;17.50;;;12.40;;
11943;SDS011;6031;50.220;10.122;2022-08-19T06:29:37;17.00;;;12.57;;
11943;SDS011;6031;50.220;10.122;2022-08-19T06:32:03;15.43;;;13.07;;
11943;SDS011;6031;50.220;10.122;2022-08-19T06:34:30;14.83;;;12.13;;
11943;SDS011;6031;50.220;10.122;2022-08-19T06:36:57;13.20;;;11.80;;
11943;SDS011;6031;50.220;10.122;2022-08-19T06:39:27;13.47;;;12.10;;
11943;SDS011;6031;50.220;10.122;2022-08-19T06:41:59;12.93;;;11.53;;
11943;SDS011;6031;50.220;10.122;2022-08-19T06:44:26;12.67;;;11.37;;
11943;SDS011;6031;50.220;10.122;2022-08-19T06:46:54;13.07;;;11.77;;
11943;SDS011;6031;50.220;10.122;2022-08-19T06:49:20;13.67;;;12.27;;
11943;SDS011;6031;50.220;10.122;2022-08-19T06:51:46;17.53;;;11.87;;
11943;SDS011;6031;50.220;10.122;2022-08-19T06:54:14;12.60;;;11.30;;
11943;SDS011;6031;50.220;10.122;2022-08-19T06:56:40;16.23;;;11.53;;
11943;SDS011;6031;50.220;10.122;2022-08-19T06:59:08;17.20;;;11.87;;
11943;SDS011;6031;50.220;10.122;2022-08-19T07:01:39;15.53;;;12.47;;
11943;SDS011;6031;50.220;10.122;2022-08-19T07:04:17;11.90;;;10.80;;
11943;SDS011;6031;50.220;10.122;2022-08-19T07:06:45;15.13;;;12.03;;
11943;SDS011;6031;50.220;10.122;2022-08-19T07:09:15;14.97;;;11.80;;
11943;SDS011;6031;50.220;10.122;2022-08-19T07:11:49;14.23;;;10.70;;
11943;SDS011;6031;50.220;10.122;2022-08-19T07:14:16;12.00;;;10.77;;
11943;SDS011;6031;50.220;10.122;2022-08-19T07:16:44;15.67;;;11.37;;
11943;SDS011;6031;50.220;10.122;2022-08-19T07:19:10;14.90;;;12.20;;
11943;SDS011;6031;50.220;10.122;2022-08-19T07:21:37;11.03;;;9.70;;
11943;SDS011;6031;50.220;10.122;2022-08-19T07:24:02;11.70;;;10.60;;
11943;SDS011;6031;50.220;10.122;2022-08-19T07:26:30;14.17;;;11.13;;
11943;SDS011;6031;50.220;10.122;2022-08-19T07:28:57;11.30;;;10.17;;
11943;SDS011;6031;50.220;10.122;2022-08-19T07:31:25;13.03;;;10.60;;
11943;SDS011;6031;50.220;10.122;2022-08-19T07:33:52;11.80;;;10.63;;
11943;SDS011;6031;50.220;10.122;2022-08-19T07:36:21;12.00;;;10.93;;
11943;SDS011;6031;50.220;10.122;2022-08-19T07:38:49;11.63;;;10.50;;
11943;SDS011;6031;50.220;10.122;2022-08-19T07:41:17;11.77;;;10.43;;
11943;SDS011;6031;50.220;10.122;2022-08-19T07:43:44;12.90;;;9.60;;
11943;SDS011;6031;50.220;10.122;2022-08-19T07:46:10;12.17;;;10.13;;
11943;SDS011;6031;50.220;10.122;2022-08-19T07:48:38;14.23;;;10.17;;
11943;SDS011;6031;50.220;10.122;2022-08-19T07:51:05;10.83;;;9.73;;
11943;SDS011;6031;50.220;10.122;2022-08-19T07:53:33;16.23;;;10.93;;
11943;SDS011;6031;50.220;10.122;2022-08-19T07:56:00;11.73;;;10.07;;
11943;SDS011;6031;50.220;10.122;2022-08-19T07:58:28;10.10;;;9.00;;
11943;SDS011;6031;50.220;10.122;2022-08-19T08:00:54;11.17;;;10.07;;
11943;SDS011;6031;50.220;10.122;2022-08-19T08:03:20;12.80;;;11.07;;
11943;SDS011;6031;50.220;10.122;2022-08-19T08:06:10;11.07;;;9.67;;
11943;SDS011;6031;50.220;10.122;2022-08-19T08:08:55;11.37;;;10.17;;
11943;SDS011;6031;50.220;10.122;2022-08-19T08:11:37;10.90;;;9.90;;
11943;SDS011;6031;50.220;10.122;2022-08-19T08:14:03;11.50;;;9.90;;
11943;SDS011;6031;50.220;10.122;2022-08-19T08:16:30;13.17;;;10.83;;
11943;SDS011;6031;50.220;10.122;2022-08-19T08:19:00;10.73;;;9.33;;
11943;SDS011;6031;50.220;10.122;2022-08-19T08:21:25;12.07;;;10.00;;
11943;SDS011;6031;50.220;10.122;2022-08-19T08:23:51;11.37;;;10.30;;
11943;SDS011;6031;50.220;10.122;2022-08-19T08:26:18;10.87;;;9.43;;
11943;SDS011;6031;50.220;10.122;2022-08-19T08:28:43;11.23;;;10.23;;
11943;SDS011;6031;50.220;10.122;2022-08-19T08:31:09;12.33;;;9.50;;
11943;SDS011;6031;50.220;10.122;2022-08-19T08:33:35;10.47;;;9.57;;
11943;SDS011;6031;50.220;10.122;2022-08-19T08:36:01;12.50;;;10.47;;
11943;SDS011;6031;50.220;10.122;2022-08-19T08:38:30;11.07;;;10.07;;
11943;SDS011;6031;50.220;10.122;2022-08-19T08:40:57;11.67;;;10.07;;
11943;SDS011;6031;50.220;10.122;2022-08-19T08:43:37;10.47;;;9.50;;
11943;SDS011;6031;50.220;10.122;2022-08-19T08:46:10;15.40;;;9.30;;
11943;SDS011;6031;50.220;10.122;2022-08-19T08:48:51;15.53;;;8.93;;
11943;SDS011;6031;50.220;10.122;2022-08-19T08:51:20;11.30;;;9.77;;
11943;SDS011;6031;50.220;10.122;2022-08-19T08:53:51;12.47;;;9.47;;
11943;SDS011;6031;50.220;10.122;2022-08-19T08:56:18;9.53;;;8.53;;
11943;SDS011;6031;50.220;10.122;2022-08-19T08:59:05;9.90;;;9.00;;
11943;SDS011;6031;50.220;10.122;2022-08-19T09:01:35;11.97;;;9.27;;
11943;SDS011;6031;50.220;10.122;2022-08-19T09:04:05;9.63;;;8.60;;
11943;SDS011;6031;50.220;10.122;2022-08-19T09:06:36;21.33;;;9.03;;
11943;SDS011;6031;50.220;10.122;2022-08-19T09:17:23;8.33;;;7.53;;
11943;SDS011;6031;50.220;10.122;2022-08-19T09:20:08;7.77;;;7.03;;
11943;SDS011;6031;50.220;10.122;2022-08-19T09:22:46;8.07;;;6.93;;
11943;SDS011;6031;50.220;10.122;2022-08-19T09:25:14;7.30;;;6.60;;
11943;SDS011;6031;50.220;10.122;2022-08-19T09:27:42;7.13;;;6.23;;
11943;SDS011;6031;50.220;10.122;2022-08-19T09:30:08;12.67;;;5.60;;
11943;SDS011;6031;50.220;10.122;2022-08-19T09:32:43;7.67;;;5.33;;
11943;SDS011;6031;50.220;10.122;2022-08-19T09:35:10;5.17;;;4.77;;
11943;SDS011;6031;50.220;10.122;2022-08-19T09:37:37;6.43;;;5.10;;
11943;SDS011;6031;50.220;10.122;2022-08-19T09:40:04;5.53;;;4.57;;
11943;SDS011;6031;50.220;10.122;2022-08-19T09:42:30;6.33;;;4.80;;
11943;SDS011;6031;50.220;10.122;2022-08-19T09:44:55;4.20;;;3.80;;
11943;SDS011;6031;50.220;10.122;2022-08-19T09:47:21;5.90;;;4.60;;
11943;SDS011;6031;50.220;10.122;2022-08-19T09:49:46;3.93;;;3.63;;
11943;SDS011;6031;50.220;10.122;2022-08-19T09:52:13;4.90;;;3.90;;
11943;SDS011;6031;50.220;10.122;2022-08-19T09:54:40;4.37;;;3.93;;
11943;SDS011;6031;50.220;10.122;2022-08-19T09:57:05;3.70;;;3.40;;
11943;SDS011;6031;50.220;10.122;2022-08-19T09:59:31;4.33;;;3.80;;
11943;SDS011;6031;50.220;10.122;2022-08-19T10:01:57;3.88;;;3.58;;
11943;SDS011;6031;50.220;10.122;2022-08-19T10:04:22;4.63;;;3.17;;
11943;SDS011;6031;50.220;10.122;2022-08-19T10:07:08;4.27;;;3.37;;
11943;SDS011;6031;50.220;10.122;2022-08-19T10:09:34;3.28;;;2.97;;
11943;SDS011;6031;50.220;10.122;2022-08-19T10:12:00;3.13;;;2.90;;
11943;SDS011;6031;50.220;10.122;2022-08-19T10:14:27;3.03;;;2.83;;
11943;SDS011;6031;50.220;10.122;2022-08-19T10:16:53;2.70;;;2.50;;
11943;SDS011;6031;50.220;10.122;2022-08-19T10:19:19;3.47;;;2.92;;
11943;SDS011;6031;50.220;10.122;2022-08-19T10:21:47;2.85;;;2.65;;
11943;SDS011;6031;50.220;10.122;2022-08-19T10:24:13;2.72;;;2.53;;
11943;SDS011;6031;50.220;10.122;2022-08-19T10:26:39;4.13;;;2.88;;
11943;SDS011;6031;50.220;10.122;2022-08-19T10:29:12;4.38;;;2.40;;
11943;SDS011;6031;50.220;10.122;2022-08-19T10:31:40;2.63;;;2.53;;
11943;SDS011;6031;50.220;10.122;2022-08-19T10:34:06;2.78;;;2.50;;
11943;SDS011;6031;50.220;10.122;2022-08-19T10:36:33;2.75;;;2.55;;
11943;SDS011;6031;50.220;10.122;2022-08-19T10:39:01;3.20;;;3.00;;
11943;SDS011;6031;50.220;10.122;2022-08-19T10:41:33;2.78;;;2.58;;
11943;SDS011;6031;50.220;10.122;2022-08-19T10:44:03;2.17;;;2.03;;
11943;SDS011;6031;50.220;10.122;2022-08-19T10:46:31;2.90;;;2.45;;
11943;SDS011;6031;50.220;10.122;2022-08-19T10:48:59;2.88;;;2.40;;
11943;SDS011;6031;50.220;10.122;2022-08-19T10:51:26;4.43;;;3.08;;
11943;SDS011;6031;50.220;10.122;2022-08-19T10:54:10;2.55;;;2.35;;
11943;SDS011;6031;50.220;10.122;2022-08-19T10:56:36;2.47;;;2.38;;
11943;SDS011;6031;50.220;10.122;2022-08-19T10:59:23;2.67;;;2.45;;
11943;SDS011;6031;50.220;10.122;2022-08-19T11:01:52;2.78;;;2.58;;
11943;SDS011;6031;50.220;10.122;2022-08-19T11:04:19;2.33;;;2.03;;
11943;SDS011;6031;50.220;10.122;2022-08-19T11:06:45;2.75;;;2.42;;
11943;SDS011;6031;50.220;10.122;2022-08-19T11:09:17;2.35;;;2.25;;
11943;SDS011;6031;50.220;10.122;2022-08-19T11:11:44;2.88;;;2.67;;
11943;SDS011;6031;50.220;10.122;2022-08-19T11:14:11;2.08;;;1.98;;
11943;SDS011;6031;50.220;10.122;2022-08-19T11:16:38;2.20;;;2.00;;
11943;SDS011;6031;50.220;10.122;2022-08-19T11:19:05;2.80;;;2.60;;
11943;SDS011;6031;50.220;10.122;2022-08-19T11:21:33;2.25;;;2.13;;
11943;SDS011;6031;50.220;10.122;2022-08-19T11:24:01;3.60;;;2.60;;
11943;SDS011;6031;50.220;10.122;2022-08-19T11:26:30;3.13;;;2.45;;
11943;SDS011;6031;50.220;10.122;2022-08-19T11:28:57;4.70;;;2.75;;
11943;SDS011;6031;50.220;10.122;2022-08-19T11:31:24;2.65;;;2.45;;
11943;SDS011;6031;50.220;10.122;2022-08-19T11:33:52;2.65;;;2.45;;
11943;SDS011;6031;50.220;10.122;2022-08-19T11:36:19;2.25;;;2.15;;
11943;SDS011;6031;50.220;10.122;2022-08-19T11:38:45;2.60;;;2.38;;
11943;SDS011;6031;50.220;10.122;2022-08-19T11:41:13;3.00;;;2.05;;
11943;SDS011;6031;50.220;10.122;2022-08-19T11:43:39;3.03;;;2.50;;
11943;SDS011;6031;50.220;10.122;2022-08-19T11:46:06;2.13;;;2.03;;
11943;SDS011;6031;50.220;10.122;2022-08-19T11:48:33;2.17;;;1.98;;
11943;SDS011;6031;50.220;10.122;2022-08-19T11:51:02;2.20;;;2.10;;
11943;SDS011;6031;50.220;10.122;2022-08-19T11:53:33;3.15;;;2.00;;
11943;SDS011;6031;50.220;10.122;2022-08-19T11:55:59;2.40;;;2.13;;
11943;SDS011;6031;50.220;10.122;2022-08-19T11:58:25;2.25;;;2.05;;
11943;SDS011;6031;50.220;10.122;2022-08-19T12:00:50;2.47;;;2.28;;
11943;SDS011;6031;50.220;10.122;2022-08-19T12:03:16;2.30;;;2.10;;
11943;SDS011;6031;50.220;10.122;2022-08-19T12:05:44;2.53;;;2.10;;
11943;SDS011;6031;50.220;10.122;2022-08-19T12:08:10;2.20;;;2.03;;
11943;SDS011;6031;50.220;10.122;2022-08-19T12:10:37;2.45;;;2.28;;
11943;SDS011;6031;50.220;10.122;2022-08-19T12:13:04;2.03;;;1.92;;
11943;SDS011;6031;50.220;10.122;2022-08-19T12:15:34;1.70;;;1.60;;
11943;SDS011;6031;50.220;10.122;2022-08-19T12:18:05;1.95;;;1.85;;
11943;SDS011;6031;50.220;10.122;2022-08-19T12:20:33;1.90;;;1.80;;
11943;SDS011;6031;50.220;10.122;2022-08-19T12:23:03;1.80;;;1.70;;
11943;SDS011;6031;50.220;10.122;2022-08-19T12:25:29;2.25;;;2.00;;
11943;SDS011;6031;50.220;10.122;2022-08-19T12:27:55;2.10;;;1.90;;
11943;SDS011;6031;50.220;10.122;2022-08-19T12:30:21;2.30;;;2.08;;
11943;SDS011;6031;50.220;10.122;2022-08-19T12:32:47;2.00;;;1.80;;
11943;SDS011;6031;50.220;10.122;2022-08-19T12:35:12;1.73;;;1.60;;
11943;SDS011;6031;50.220;10.122;2022-08-19T12:37:38;2.35;;;2.05;;
11943;SDS011;6031;50.220;10.122;2022-08-19T12:40:09;1.63;;;1.52;;
11943;SDS011;6031;50.220;10.122;2022-08-19T12:42:36;1.60;;;1.50;;
11943;SDS011;6031;50.220;10.122;2022-08-19T12:45:05;1.67;;;1.58;;
11943;SDS011;6031;50.220;10.122;2022-08-19T12:47:32;2.10;;;1.90;;
11943;SDS011;6031;50.220;10.122;2022-08-19T12:49:57;1.85;;;1.70;;
11943;SDS011;6031;50.220;10.122;2022-08-19T12:52:23;2.00;;;1.90;;
11943;SDS011;6031;50.220;10.122;2022-08-19T12:54:51;2.50;;;1.73;;
11943;SDS011;6031;50.220;10.122;2022-08-19T12:57:19;2.10;;;1.90;;
11943;SDS011;6031;50.220;10.122;2022-08-19T12:59:44;1.80;;;1.70;;
11943;SDS011;6031;50.220;10.122;2022-08-19T13:02:10;1.70;;;1.60;;
11943;SDS011;6031;50.220;10.122;2022-08-19T13:04:35;1.70;;;1.60;;
11943;SDS011;6031;50.220;10.122;2022-08-19T13:07:05;1.98;;;1.88;;
11943;SDS011;6031;50.220;10.122;2022-08-19T13:09:31;3.72;;;1.85;;
11943;SDS011;6031;50.220;10.122;2022-08-19T13:11:56;3.72;;;2.00;;
11943;SDS011;6031;50.220;10.122;2022-08-19T13:14:22;2.25;;;2.05;;
11943;SDS011;6031;50.220;10.122;2022-08-19T13:16:47;4.40;;;1.85;;
11943;SDS011;6031;50.220;10.122;2022-08-19T13:19:13;2.60;;;1.83;;
11943;SDS011;6031;50.220;10.122;2022-08-19T13:21:38;1.80;;;1.70;;
11943;SDS011;6031;50.220;10.122;2022-08-19T13:24:04;2.22;;;2.13;;
11943;SDS011;6031;50.220;10.122;2022-08-19T13:26:30;2.05;;;1.95;;
11943;SDS011;6031;50.220;10.122;2022-08-19T13:28:55;1.90;;;1.73;;
11943;SDS011;6031;50.220;10.122;2022-08-19T13:31:40;2.30;;;2.15;;
11943;SDS011;6031;50.220;10.122;2022-08-19T13:34:27;2.65;;;1.63;;
11943;SDS011;6031;50.220;10.122;2022-08-19T13:36:55;2.15;;;1.83;;
11943;SDS011;6031;50.220;10.122;2022-08-19T13:39:21;1.80;;;1.70;;
11943;SDS011;6031;50.220;10.122;2022-08-19T13:41:47;2.17;;;1.98;;
11943;SDS011;6031;50.220;10.122;2022-08-19T13:44:14;1.98;;;1.65;;
11943;SDS011;6031;50.220;10.122;2022-08-19T13:46:40;2.05;;;1.55;;
11943;SDS011;6031;50.220;10.122;2022-08-19T13:49:09;1.83;;;1.73;;
11943;SDS011;6031;50.220;10.122;2022-08-19T13:51:35;2.30;;;2.20;;
11943;SDS011;6031;50.220;10.122;2022-08-19T13:54:02;2.25;;;1.95;;
11943;SDS011;6031;50.220;10.122;2022-08-19T13:56:27;2.25;;;2.05;;
11943;SDS011;6031;50.220;10.122;2022-08-19T13:58:53;2.03;;;1.90;;
11943;SDS011;6031;50.220;10.122;2022-08-19T14:01:19;1.42;;;1.42;;
11943;SDS011;6031;50.220;10.122;2022-08-19T14:03:46;1.88;;;1.77;;
11943;SDS011;6031;50.220;10.122;2022-08-19T14:06:11;2.17;;;1.98;;
11943;SDS011;6031;50.220;10.122;2022-08-19T14:08:37;2.20;;;2.10;;
11943;SDS011;6031;50.220;10.122;2022-08-19T14:11:04;4.43;;;1.85;;
11943;SDS011;6031;50.220;10.122;2022-08-19T14:13:30;2.20;;;2.10;;
11943;SDS011;6031;50.220;10.122;2022-08-19T14:15:58;2.55;;;2.20;;
11943;SDS011;6031;50.220;10.122;2022-08-19T14:18:23;2.30;;;2.10;;
11943;SDS011;6031;50.220;10.122;2022-08-19T14:20:50;2.20;;;2.10;;
11943;SDS011;6031;50.220;10.122;2022-08-19T14:23:16;2.20;;;2.00;;
11943;SDS011;6031;50.220;10.122;2022-08-19T14:25:42;1.73;;;1.63;;
11943;SDS011;6031;50.220;10.122;2022-08-19T14:28:08;3.78;;;1.50;;
11943;SDS011;6031;50.220;10.122;2022-08-19T14:30:34;2.38;;;2.17;;
11943;SDS011;6031;50.220;10.122;2022-08-19T14:33:03;2.15;;;1.73;;
11943;SDS011;6031;50.220;10.122;2022-08-19T14:35:30;2.03;;;1.92;;
11943;SDS011;6031;50.220;10.122;2022-08-19T14:37:59;3.15;;;2.45;;
11943;SDS011;6031;50.220;10.122;2022-08-19T14:40:26;2.22;;;2.05;;
11943;SDS011;6031;50.220;10.122;2022-08-19T14:42:54;2.80;;;2.10;;
11943;SDS011;6031;50.220;10.122;2022-08-19T14:45:23;2.60;;;2.40;;
11943;SDS011;6031;50.220;10.122;2022-08-19T14:47:50;2.50;;;2.05;;